Gentle Leader — C6WY9 — position and weather

sailwx.info

Track history (hours):
 
Tides and Currents Weather Stations Pressure Air Temp Water Temp Dewpoint Dewpoint Depression Visibility Wind Speed Wind Dir Waves Ship Positions

Gentle Leader

Last reported at 2017-Nov-20 00:30 UTC. Time now 2017-Nov-22 16:47 UTC.
Position N 50°32' W 000°44'.

Length 200 m; draft 8.8 m.

Type: Cargo ship. MMSI: 311003300.

Date/timePositionNaut miles runAvg speedWind from/ knotsBaromVisibWave heightAir tempDewpointWater temp
2017-Nov-20 00:30N 50°32' W 000°44'1 1.4
2017-Nov-20 00:00N 50°32' W 000°43'1 1.7
2017-Nov-19 23:30N 50°32' W 000°42'3 6.0
2017-Nov-19 23:00N 50°34' W 000°38'3 5.8
2017-Nov-19 22:30N 50°35' W 000°33'1 1.9
2017-Nov-19 22:01N 50°34' W 000°35'1 2.1
2017-Nov-19 21:30N 50°34' W 000°36'1 2.3
2017-Nov-19 21:00N 50°34' W 000°38'1 2.6
2017-Nov-19 20:30N 50°33' W 000°40'1 2.6
2017-Nov-19 20:00N 50°33' W 000°42'1 1.5
2017-Nov-19 19:30N 50°33' W 000°43'2 3.3
2017-Nov-19 18:58N 50°31' W 000°42'1 1.7
2017-Nov-19 18:30N 50°32' W 000°43'0 1.0
2017-Nov-19 18:01N 50°32' W 000°44'0 0.8
2017-Nov-19 17:30N 50°32' W 000°44'1 1.1
2017-Nov-19 17:00N 50°33' W 000°44'1 1.6
2017-Nov-19 16:30N 50°33' W 000°43'1 1.6
2017-Nov-19 16:00N 50°34' W 000°42'1 1.6
2017-Nov-19 15:30N 50°34' W 000°41'1 1.3
2017-Nov-19 15:00N 50°35' W 000°40'1 1.3
2017-Nov-19 14:30N 50°35' W 000°39'2 3.5
2017-Nov-19 14:00N 50°34' W 000°42'2 3.2
2017-Nov-19 13:30N 50°33' W 000°43'2 3.2
2017-Nov-19 13:00N 50°34' W 000°41'1 2.7
2017-Nov-19 12:30N 50°34' W 000°39'1 2.0
2017-Nov-19 12:00N 50°35' W 000°38'1 1.6
2017-Nov-19 11:31N 50°35' W 000°37'0 0.6
2017-Nov-19 11:01N 50°35' W 000°36'1 1.0
2017-Nov-19 10:30N 50°35' W 000°37'1 1.5
2017-Nov-19 10:00N 50°36' W 000°38'1 2.2
2017-Nov-19 09:30N 50°36' W 000°40'1 1.4
2017-Nov-19 09:01N 50°35' W 000°40'3 6.0
2017-Nov-19 08:30N 50°34' W 000°35'2 4.1
2017-Nov-19 08:00N 50°34' W 000°32'1 1.2
2017-Nov-19 07:30N 50°34' W 000°33'0 0.7
2017-Nov-19 07:00N 50°34' W 000°32'5 9.3
2017-Nov-19 06:30N 50°33' W 000°25'510.0
2017-Nov-19 06:00N 50°32' W 000°17'714.0
2017-Nov-19 05:30N 50°32' W 000°06'714.5
2017-Nov-19 05:00N 50°33' E 000°05'815.1
2017-Nov-19 04:30N 50°35' E 000°16'815.2
2017-Nov-19 04:00N 50°37' E 000°28'714.9
2017-Nov-19 03:30N 50°40' E 000°39'714.7
2017-Nov-19 03:00N 50°44' E 000°48'714.1
2017-Nov-19 02:29N 50°49' E 000°57'713.6
2017-Nov-19 02:00N 50°53' E 001°06'713.2
2017-Nov-19 01:30N 50°57' E 001°14'713.5
2017-Nov-19 01:00N 51°01' E 001°22'713.8
2017-Nov-19 00:30N 51°05' E 001°31'714.2
2017-Nov-19 00:01N 51°10' E 001°39'713.6
2017-Nov-18 23:31N 51°15' E 001°47'714.5
2017-Nov-18 23:00N 51°20' E 001°54'713.3
2017-Nov-18 22:30N 51°24' E 002°03'714.3
2017-Nov-18 22:00N 51°22' E 002°14'714.5
2017-Nov-18 21:30N 51°22' E 002°25'815.3
2017-Nov-18 21:00N 51°22' E 002°38'611.5
2017-Nov-18 20:30N 51°22' E 002°47'815.5
2017-Nov-18 20:00N 51°23' E 002°59'815.4
2017-Nov-18 19:31N 51°24' E 003°11'816.2
2017-Nov-18 19:00N 51°25' E 003°24'713.8
2017-Nov-18 18:30N 51°26' E 003°35'4 8.1
2017-Nov-18 18:01N 51°26' E 003°42'714.0
2017-Nov-18 17:31N 51°21' E 003°50'714.5
2017-Nov-18 17:00N 51°26' E 003°58'611.4
2017-Nov-18 16:30N 51°22' E 004°05'5 9.6
2017-Nov-18 16:00N 51°22' E 004°13'4 8.1
2017-Nov-18 15:30N 51°19' E 004°16'2 4.7
2017-Nov-18 15:00N 51°17' E 004°15'0 0.0
2017-Nov-18 14:30N 51°17' E 004°15'0 0.7
2017-Nov-18 14:00N 51°16' E 004°15'1 1.8
2017-Nov-18 13:28N 51°16' E 004°13'0 0.0
2017-Nov-18 12:58N 51°16' E 004°13'0 0.0
2017-Nov-18 12:28N 51°16' E 004°13'0 0.0
2017-Nov-18 11:58N 51°16' E 004°13'0 0.0
2017-Nov-18 11:28N 51°16' E 004°13'0 0.0
2017-Nov-18 10:58N 51°16' E 004°13'0 0.0
2017-Nov-18 10:28N 51°16' E 004°13'0 0.0
2017-Nov-18 09:58N 51°16' E 004°13'0 0.0
2017-Nov-18 09:28N 51°16' E 004°13'0 0.0
2017-Nov-18 08:58N 51°16' E 004°13'0 0.0
2017-Nov-18 08:28N 51°16' E 004°13'0 0.0
2017-Nov-18 07:58N 51°16' E 004°13'0 0.0
2017-Nov-18 07:28N 51°16' E 004°13'0 0.0
2017-Nov-18 06:58N 51°16' E 004°13'0 0.0
2017-Nov-18 06:28N 51°16' E 004°13'0 0.0
2017-Nov-18 05:58N 51°16' E 004°13'0 0.0
2017-Nov-18 05:25N 51°16' E 004°13'0 0.0
2017-Nov-18 04:58N 51°16' E 004°13'0 0.0
2017-Nov-18 04:28N 51°16' E 004°13'0 0.0
2017-Nov-18 03:58N 51°16' E 004°13'0 0.0
2017-Nov-18 03:28N 51°16' E 004°13'0 0.0
2017-Nov-18 02:58N 51°16' E 004°13'0 0.0
2017-Nov-18 02:28N 51°16' E 004°13'0 0.0
2017-Nov-18 01:58N 51°16' E 004°13'0 0.0
2017-Nov-18 01:28N 51°16' E 004°13'0 0.0
2017-Nov-18 00:58N 51°16' E 004°13'0 0.0
2017-Nov-18 00:28N 51°16' E 004°13'0 0.0
2017-Nov-17 23:58N 51°16' E 004°13'0 0.0
2017-Nov-17 23:28N 51°16' E 004°13'0 0.0
2017-Nov-17 22:58N 51°16' E 004°13'0 0.0
2017-Nov-17 22:28N 51°16' E 004°13'0 0.0
2017-Nov-17 21:58N 51°16' E 004°13'0 0.0
2017-Nov-17 21:28N 51°16' E 004°13'0 0.0
2017-Nov-17 20:58N 51°16' E 004°13'0 0.0
2017-Nov-17 20:28N 51°16' E 004°13'0 0.0
2017-Nov-17 19:58N 51°16' E 004°13'0 0.0
2017-Nov-17 19:28N 51°16' E 004°13'0 0.0
2017-Nov-17 18:58N 51°16' E 004°13'0 0.0
2017-Nov-17 18:28N 51°16' E 004°13'0 0.0
2017-Nov-17 17:58N 51°16' E 004°13'0 0.0
2017-Nov-17 17:28N 51°16' E 004°13'0 0.0
2017-Nov-17 16:58N 51°16' E 004°13'0 0.0
2017-Nov-17 16:28N 51°16' E 004°13'0 0.0
2017-Nov-17 15:58N 51°16' E 004°13'0 0.0
2017-Nov-17 15:28N 51°16' E 004°13'0 0.0
2017-Nov-17 14:58N 51°16' E 004°13'0 0.0
2017-Nov-17 14:28N 51°16' E 004°13'0 0.0
2017-Nov-17 13:58N 51°16' E 004°13'0 0.0
2017-Nov-17 13:28N 51°16' E 004°13'0 0.0
2017-Nov-17 12:58N 51°16' E 004°13'0 0.0
2017-Nov-17 12:28N 51°16' E 004°13'0 0.0
2017-Nov-17 11:58N 51°16' E 004°13'0 0.0
2017-Nov-17 11:28N 51°16' E 004°13'0 0.0
2017-Nov-17 10:58N 51°16' E 004°13'0 0.0
2017-Nov-17 10:28N 51°16' E 004°13'0 0.0
2017-Nov-17 09:58N 51°16' E 004°13'0 0.0
2017-Nov-17 09:28N 51°16' E 004°13'0 0.0
2017-Nov-17 08:58N 51°16' E 004°13'0 0.0
2017-Nov-17 08:28N 51°16' E 004°13'0 0.0
2017-Nov-17 07:58N 51°16' E 004°13'0 0.0
2017-Nov-17 07:28N 51°16' E 004°13'0 0.0
2017-Nov-17 06:58N 51°16' E 004°13'0 0.0
2017-Nov-17 06:28N 51°16' E 004°13'0 0.0
2017-Nov-17 05:58N 51°16' E 004°13'0 0.0
2017-Nov-17 05:28N 51°16' E 004°13'0 0.0
2017-Nov-17 04:58N 51°16' E 004°13'0 0.0
2017-Nov-17 04:28N 51°16' E 004°13'0 0.0
2017-Nov-17 03:58N 51°16' E 004°13'0 0.0
2017-Nov-17 03:28N 51°16' E 004°13'0 0.0
2017-Nov-17 02:58N 51°16' E 004°13'0 0.0
2017-Nov-17 02:28N 51°16' E 004°13'0 0.0
2017-Nov-17 01:58N 51°16' E 004°13'0 0.0
2017-Nov-17 01:28N 51°16' E 004°13'0 0.0
2017-Nov-17 00:58N 51°16' E 004°13'0 0.0
2017-Nov-17 00:28N 51°16' E 004°13'0 0.0
2017-Nov-16 23:58N 51°16' E 004°13'1 1.2
2017-Nov-16 23:31N 51°17' E 004°13'2 4.3
2017-Nov-16 23:01N 51°16' E 004°17'0 0.0
2017-Nov-16 22:31N 51°16' E 004°17'0 0.0
2017-Nov-16 22:01N 51°16' E 004°17'1 1.3
2017-Nov-16 21:30N 51°16' E 004°18'4 7.4
2017-Nov-16 21:00N 51°20' E 004°16'510.8
2017-Nov-16 20:31N 51°23' E 004°10'611.6
2017-Nov-16 20:00N 51°25' E 004°01'713.4
2017-Nov-16 19:31N 51°21' E 003°53'713.8
2017-Nov-16 19:01N 51°24' E 003°43'510.2
2017-Nov-16 18:30N 51°26' E 003°35'611.9
2017-Nov-16 18:00N 51°25' E 003°26'714.0
2017-Nov-16 17:30N 51°24' E 003°15'713.9
2017-Nov-16 17:00N 51°24' E 003°04'5 9.9
2017-Nov-16 16:30N 51°29' E 003°02'815.1
2017-Nov-16 16:00N 51°35' E 003°10'714.6
2017-Nov-16 15:30N 51°42' E 003°13'4 7.1
2017-Nov-16 15:00N 51°45' E 003°15'3111.2
2017-Nov-16 12:16N 52°15' E 003°25'513.8
2017-Nov-16 11:55N 52°20' E 003°26'3113.2
2017-Nov-16 09:34N 52°49' E 003°45'116.0
2017-Nov-16 09:30N 52°50' E 003°47'918.0
2017-Nov-16 08:59N 52°57' E 003°57'817.3
2017-Nov-16 08:29N 53°02' E 004°08'816.0
2017-Nov-16 08:00N 53°07' E 004°18'13014.5
2017-Nov-15 23:01N 54°01' E 007°37'015.8
2017-Nov-15 23:00N 54°01' E 007°37'815.3
2017-Nov-15 22:30N 54°01' E 007°50'815.3
2017-Nov-15 22:00N 54°01' E 008°03'713.5
2017-Nov-15 21:30N 54°00' E 008°15'714.8
2017-Nov-15 21:00N 53°59' E 008°27'714.1
2017-Nov-15 20:30N 53°57' E 008°39'713.6
2017-Nov-15 20:00N 53°51' E 008°45'612.8
2017-Nov-15 19:30N 53°51' E 008°56'612.9
2017-Nov-15 19:01N 53°53' E 009°07'4 8.4
2017-Nov-15 18:31N 53°53' E 009°14'612.8
2017-Nov-15 18:01N 53°49' E 009°22'714.8
2017-Nov-15 17:30N 53°43' E 009°29'713.7
2017-Nov-15 17:01N 53°37' E 009°35'611.6
2017-Nov-15 16:30N 53°34' E 009°43'5 9.8
2017-Nov-15 16:00N 53°33' E 009°51'4 7.4
2017-Nov-15 15:30N 53°33' E 009°57'2 3.3
2017-Nov-15 15:00N 53°32' E 009°60'0 0.0
2017-Nov-15 14:30N 53°32' E 009°60'0 0.0
2017-Nov-15 14:00N 53°32' E 009°60'0 0.0
2017-Nov-15 13:30N 53°32' E 009°60'0 0.0
2017-Nov-15 13:01N 53°32' E 009°60'0 0.0
2017-Nov-15 12:30N 53°32' E 009°60'0 0.0
2017-Nov-15 12:00N 53°32' E 009°60'0 0.0
2017-Nov-15 11:30N 53°32' E 009°60'0 0.0
2017-Nov-15 11:01N 53°32' E 009°60'0 0.0
2017-Nov-15 10:30N 53°32' E 009°60'0 0.0
2017-Nov-15 10:00N 53°32' E 009°60'0 0.0
2017-Nov-15 09:30N 53°32' E 009°60'0 0.0
2017-Nov-15 09:00N 53°32' E 009°60'0 0.0
2017-Nov-15 08:31N 53°32' E 009°60'0 0.0
2017-Nov-15 08:00N 53°32' E 009°60'0 0.0
2017-Nov-15 07:30N 53°32' E 009°60'0 0.0
2017-Nov-15 07:00N 53°32' E 009°60'0 0.0
2017-Nov-15 06:30N 53°32' E 009°60'0 0.0
2017-Nov-15 06:00N 53°32' E 009°60'0 0.0
2017-Nov-15 05:30N 53°32' E 009°60'0 0.0
2017-Nov-15 05:00N 53°32' E 009°60'0 0.0
2017-Nov-15 04:30N 53°32' E 009°60'0 0.0
2017-Nov-15 04:00N 53°32' E 009°60'1 2.9
2017-Nov-15 03:30N 53°33' E 009°58'4 7.2
2017-Nov-15 03:00N 53°33' E 009°52'3 6.7
2017-Nov-15 02:30N 53°34' E 009°46'5 9.8
2017-Nov-15 02:00N 53°34' E 009°38'612.4
2017-Nov-15 01:30N 53°39' E 009°31'612.5
2017-Nov-15 01:00N 53°44' E 009°26'714.6
2017-Nov-15 00:30N 53°51' E 009°20'713.5
2017-Nov-15 00:00N 53°53' E 009°09'511.0
2017-Nov-14 23:30N 53°51' E 008°60'815.5
2017-Nov-14 23:00N 53°51' E 008°47'713.6
2017-Nov-14 22:30N 53°56' E 008°40'815.2
2017-Nov-14 22:00N 53°59' E 008°27'814.9
2017-Nov-14 21:30N 53°59' E 008°15'5 9.8
2017-Nov-14 21:00N 53°59' E 008°06'4 8.4
2017-Nov-14 20:30N 53°59' E 007°59'4 7.9
2017-Nov-14 20:00N 53°58' E 007°53'4 7.0
2017-Nov-14 19:30N 53°58' E 007°47'287 6.9
2017-Nov-13 02:01N 50°60' E 001°36'5 9.9
2017-Nov-13 01:31N 50°56' E 001°31'5 9.4
2017-Nov-13 01:01N 50°52' E 001°26'3911.3
2017-Nov-12 21:34N 50°26' E 000°41'613.1
2017-Nov-12 21:07N 50°24' E 000°33'213.2
2017-Nov-12 20:57N 50°24' E 000°30'613.3
2017-Nov-12 20:30N 50°22' E 000°20'813.3
2017-Nov-12 19:56N 50°19' E 000°09'613.5
2017-Nov-12 19:31N 50°17' E 000°01'713.6
2017-Nov-12 18:59N 50°14' W 000°09'613.6
2017-Nov-12 18:30N 50°12' W 000°19'714.0
2017-Nov-12 18:00N 50°10' W 000°29'714.2
2017-Nov-12 17:30N 50°06' W 000°39'714.7
2017-Nov-12 17:00N 50°03' W 000°49'1714.2
2017-Nov-12 15:47N 49°56' W 001°13'414.3
2017-Nov-12 15:30N 49°54' W 001°19'715.0
2017-Nov-12 15:01N 49°51' W 001°30'714.6
2017-Nov-12 14:30N 49°46' W 001°38'4 7.6
2017-Nov-12 14:00N 49°44' W 001°42'4 8.5
2017-Nov-12 13:30N 49°45' W 001°48'510.8
2017-Nov-12 13:01N 49°48' W 001°56'2813.3
2017-Nov-12 10:55N 49°51' W 002°39'614.0
2017-Nov-12 10:30N 49°50' W 002°47'814.7
2017-Nov-12 09:59N 49°48' W 002°59'1014.2
2017-Nov-12 09:19N 49°44' W 003°13'413.6
2017-Nov-12 09:00N 49°43' W 003°19'1213.7
2017-Nov-12 08:08N 49°40' W 003°36'813.7
2017-Nov-12 07:32N 49°37' W 003°49'113.8
2017-Nov-12 07:29N 49°37' W 003°50'  
Track history (hours):
 
Tides and Currents Weather Stations Pressure Air Temp Water Temp Dewpoint Dewpoint Depression Visibility Wind Speed Wind Dir Waves Ship Positions

Gentle Leader

Last reported at 2017-Nov-20 00:30 UTC. Time now 2017-Nov-22 16:47 UTC.
Position N 50°32' W 000°44'.

Length 200 m; draft 8.8 m.

Type: Cargo ship. MMSI: 311003300.

Date/timePositionNaut miles runAvg speedWind from/ knotsBaromVisibWave heightAir tempDewpointWater temp
2017-Nov-20 00:30N 50°32' W 000°44'1 1.4
2017-Nov-20 00:00N 50°32' W 000°43'1 1.7
2017-Nov-19 23:30N 50°32' W 000°42'3 6.0
2017-Nov-19 23:00N 50°34' W 000°38'3 5.8
2017-Nov-19 22:30N 50°35' W 000°33'1 1.9
2017-Nov-19 22:01N 50°34' W 000°35'1 2.1
2017-Nov-19 21:30N 50°34' W 000°36'1 2.3
2017-Nov-19 21:00N 50°34' W 000°38'1 2.6
2017-Nov-19 20:30N 50°33' W 000°40'1 2.6
2017-Nov-19 20:00N 50°33' W 000°42'1 1.5
2017-Nov-19 19:30N 50°33' W 000°43'2 3.3
2017-Nov-19 18:58N 50°31' W 000°42'1 1.7
2017-Nov-19 18:30N 50°32' W 000°43'0 1.0
2017-Nov-19 18:01N 50°32' W 000°44'0 0.8
2017-Nov-19 17:30N 50°32' W 000°44'1 1.1
2017-Nov-19 17:00N 50°33' W 000°44'1 1.6
2017-Nov-19 16:30N 50°33' W 000°43'1 1.6
2017-Nov-19 16:00N 50°34' W 000°42'1 1.6
2017-Nov-19 15:30N 50°34' W 000°41'1 1.3
2017-Nov-19 15:00N 50°35' W 000°40'1 1.3
2017-Nov-19 14:30N 50°35' W 000°39'2 3.5
2017-Nov-19 14:00N 50°34' W 000°42'2 3.2
2017-Nov-19 13:30N 50°33' W 000°43'2 3.2
2017-Nov-19 13:00N 50°34' W 000°41'1 2.7
2017-Nov-19 12:30N 50°34' W 000°39'1 2.0
2017-Nov-19 12:00N 50°35' W 000°38'1 1.6
2017-Nov-19 11:31N 50°35' W 000°37'0 0.6
2017-Nov-19 11:01N 50°35' W 000°36'1 1.0
2017-Nov-19 10:30N 50°35' W 000°37'1 1.5
2017-Nov-19 10:00N 50°36' W 000°38'1 2.2
2017-Nov-19 09:30N 50°36' W 000°40'1 1.4
2017-Nov-19 09:01N 50°35' W 000°40'3 6.0
2017-Nov-19 08:30N 50°34' W 000°35'2 4.1
2017-Nov-19 08:00N 50°34' W 000°32'1 1.2
2017-Nov-19 07:30N 50°34' W 000°33'0 0.7
2017-Nov-19 07:00N 50°34' W 000°32'5 9.3
2017-Nov-19 06:30N 50°33' W 000°25'510.0
2017-Nov-19 06:00N 50°32' W 000°17'714.0
2017-Nov-19 05:30N 50°32' W 000°06'714.5
2017-Nov-19 05:00N 50°33' E 000°05'815.1
2017-Nov-19 04:30N 50°35' E 000°16'815.2
2017-Nov-19 04:00N 50°37' E 000°28'714.9
2017-Nov-19 03:30N 50°40' E 000°39'714.7
2017-Nov-19 03:00N 50°44' E 000°48'714.1
2017-Nov-19 02:29N 50°49' E 000°57'713.6
2017-Nov-19 02:00N 50°53' E 001°06'713.2
2017-Nov-19 01:30N 50°57' E 001°14'713.5
2017-Nov-19 01:00N 51°01' E 001°22'713.8
2017-Nov-19 00:30N 51°05' E 001°31'714.2
2017-Nov-19 00:01N 51°10' E 001°39'713.6
2017-Nov-18 23:31N 51°15' E 001°47'714.5
2017-Nov-18 23:00N 51°20' E 001°54'713.3
2017-Nov-18 22:30N 51°24' E 002°03'714.3
2017-Nov-18 22:00N 51°22' E 002°14'714.5
2017-Nov-18 21:30N 51°22' E 002°25'815.3
2017-Nov-18 21:00N 51°22' E 002°38'611.5
2017-Nov-18 20:30N 51°22' E 002°47'815.5
2017-Nov-18 20:00N 51°23' E 002°59'815.4
2017-Nov-18 19:31N 51°24' E 003°11'816.2
2017-Nov-18 19:00N 51°25' E 003°24'713.8
2017-Nov-18 18:30N 51°26' E 003°35'4 8.1
2017-Nov-18 18:01N 51°26' E 003°42'714.0
2017-Nov-18 17:31N 51°21' E 003°50'714.5
2017-Nov-18 17:00N 51°26' E 003°58'611.4
2017-Nov-18 16:30N 51°22' E 004°05'5 9.6
2017-Nov-18 16:00N 51°22' E 004°13'4 8.1
2017-Nov-18 15:30N 51°19' E 004°16'2 4.7
2017-Nov-18 15:00N 51°17' E 004°15'0 0.0
2017-Nov-18 14:30N 51°17' E 004°15'0 0.7
2017-Nov-18 14:00N 51°16' E 004°15'1 1.8
2017-Nov-18 13:28N 51°16' E 004°13'0 0.0
2017-Nov-18 12:58N 51°16' E 004°13'0 0.0
2017-Nov-18 12:28N 51°16' E 004°13'0 0.0
2017-Nov-18 11:58N 51°16' E 004°13'0 0.0
2017-Nov-18 11:28N 51°16' E 004°13'0 0.0
2017-Nov-18 10:58N 51°16' E 004°13'0 0.0
2017-Nov-18 10:28N 51°16' E 004°13'0 0.0
2017-Nov-18 09:58N 51°16' E 004°13'0 0.0
2017-Nov-18 09:28N 51°16' E 004°13'0 0.0
2017-Nov-18 08:58N 51°16' E 004°13'0 0.0
2017-Nov-18 08:28N 51°16' E 004°13'0 0.0
2017-Nov-18 07:58N 51°16' E 004°13'0 0.0
2017-Nov-18 07:28N 51°16' E 004°13'0 0.0
2017-Nov-18 06:58N 51°16' E 004°13'0 0.0
2017-Nov-18 06:28N 51°16' E 004°13'0 0.0
2017-Nov-18 05:58N 51°16' E 004°13'0 0.0
2017-Nov-18 05:25N 51°16' E 004°13'0 0.0
2017-Nov-18 04:58N 51°16' E 004°13'0 0.0
2017-Nov-18 04:28N 51°16' E 004°13'0 0.0
2017-Nov-18 03:58N 51°16' E 004°13'0 0.0
2017-Nov-18 03:28N 51°16' E 004°13'0 0.0
2017-Nov-18 02:58N 51°16' E 004°13'0 0.0
2017-Nov-18 02:28N 51°16' E 004°13'0 0.0
2017-Nov-18 01:58N 51°16' E 004°13'0 0.0
2017-Nov-18 01:28N 51°16' E 004°13'0 0.0
2017-Nov-18 00:58N 51°16' E 004°13'0 0.0
2017-Nov-18 00:28N 51°16' E 004°13'0 0.0
2017-Nov-17 23:58N 51°16' E 004°13'0 0.0
2017-Nov-17 23:28N 51°16' E 004°13'0 0.0
2017-Nov-17 22:58N 51°16' E 004°13'0 0.0
2017-Nov-17 22:28N 51°16' E 004°13'0 0.0
2017-Nov-17 21:58N 51°16' E 004°13'0 0.0
2017-Nov-17 21:28N 51°16' E 004°13'0 0.0
2017-Nov-17 20:58N 51°16' E 004°13'0 0.0
2017-Nov-17 20:28N 51°16' E 004°13'0 0.0
2017-Nov-17 19:58N 51°16' E 004°13'0 0.0
2017-Nov-17 19:28N 51°16' E 004°13'0 0.0
2017-Nov-17 18:58N 51°16' E 004°13'0 0.0
2017-Nov-17 18:28N 51°16' E 004°13'0 0.0
2017-Nov-17 17:58N 51°16' E 004°13'0 0.0
2017-Nov-17 17:28N 51°16' E 004°13'0 0.0
2017-Nov-17 16:58N 51°16' E 004°13'0 0.0
2017-Nov-17 16:28N 51°16' E 004°13'0 0.0
2017-Nov-17 15:58N 51°16' E 004°13'0 0.0
2017-Nov-17 15:28N 51°16' E 004°13'0 0.0
2017-Nov-17 14:58N 51°16' E 004°13'0 0.0
2017-Nov-17 14:28N 51°16' E 004°13'0 0.0
2017-Nov-17 13:58N 51°16' E 004°13'0 0.0
2017-Nov-17 13:28N 51°16' E 004°13'0 0.0
2017-Nov-17 12:58N 51°16' E 004°13'0 0.0
2017-Nov-17 12:28N 51°16' E 004°13'0 0.0
2017-Nov-17 11:58N 51°16' E 004°13'0 0.0
2017-Nov-17 11:28N 51°16' E 004°13'0 0.0
2017-Nov-17 10:58N 51°16' E 004°13'0 0.0
2017-Nov-17 10:28N 51°16' E 004°13'0 0.0
2017-Nov-17 09:58N 51°16' E 004°13'0 0.0
2017-Nov-17 09:28N 51°16' E 004°13'0 0.0
2017-Nov-17 08:58N 51°16' E 004°13'0 0.0
2017-Nov-17 08:28N 51°16' E 004°13'0 0.0
2017-Nov-17 07:58N 51°16' E 004°13'0 0.0
2017-Nov-17 07:28N 51°16' E 004°13'0 0.0
2017-Nov-17 06:58N 51°16' E 004°13'0 0.0
2017-Nov-17 06:28N 51°16' E 004°13'0 0.0
2017-Nov-17 05:58N 51°16' E 004°13'0 0.0
2017-Nov-17 05:28N 51°16' E 004°13'0 0.0
2017-Nov-17 04:58N 51°16' E 004°13'0 0.0
2017-Nov-17 04:28N 51°16' E 004°13'0 0.0
2017-Nov-17 03:58N 51°16' E 004°13'0 0.0
2017-Nov-17 03:28N 51°16' E 004°13'0 0.0
2017-Nov-17 02:58N 51°16' E 004°13'0 0.0
2017-Nov-17 02:28N 51°16' E 004°13'0 0.0
2017-Nov-17 01:58N 51°16' E 004°13'0 0.0
2017-Nov-17 01:28N 51°16' E 004°13'0 0.0
2017-Nov-17 00:58N 51°16' E 004°13'0 0.0
2017-Nov-17 00:28N 51°16' E 004°13'0 0.0
2017-Nov-16 23:58N 51°16' E 004°13'1 1.2
2017-Nov-16 23:31N 51°17' E 004°13'2 4.3
2017-Nov-16 23:01N 51°16' E 004°17'0 0.0
2017-Nov-16 22:31N 51°16' E 004°17'0 0.0
2017-Nov-16 22:01N 51°16' E 004°17'1 1.3
2017-Nov-16 21:30N 51°16' E 004°18'4 7.4
2017-Nov-16 21:00N 51°20' E 004°16'510.8
2017-Nov-16 20:31N 51°23' E 004°10'611.6
2017-Nov-16 20:00N 51°25' E 004°01'713.4
2017-Nov-16 19:31N 51°21' E 003°53'713.8
2017-Nov-16 19:01N 51°24' E 003°43'510.2
2017-Nov-16 18:30N 51°26' E 003°35'611.9
2017-Nov-16 18:00N 51°25' E 003°26'714.0
2017-Nov-16 17:30N 51°24' E 003°15'713.9
2017-Nov-16 17:00N 51°24' E 003°04'5 9.9
2017-Nov-16 16:30N 51°29' E 003°02'815.1
2017-Nov-16 16:00N 51°35' E 003°10'714.6
2017-Nov-16 15:30N 51°42' E 003°13'4 7.1
2017-Nov-16 15:00N 51°45' E 003°15'3111.2
2017-Nov-16 12:16N 52°15' E 003°25'513.8
2017-Nov-16 11:55N 52°20' E 003°26'3113.2
2017-Nov-16 09:34N 52°49' E 003°45'116.0
2017-Nov-16 09:30N 52°50' E 003°47'918.0
2017-Nov-16 08:59N 52°57' E 003°57'817.3
2017-Nov-16 08:29N 53°02' E 004°08'816.0
2017-Nov-16 08:00N 53°07' E 004°18'13014.5
2017-Nov-15 23:01N 54°01' E 007°37'015.8
2017-Nov-15 23:00N 54°01' E 007°37'815.3
2017-Nov-15 22:30N 54°01' E 007°50'815.3
2017-Nov-15 22:00N 54°01' E 008°03'713.5
2017-Nov-15 21:30N 54°00' E 008°15'714.8
2017-Nov-15 21:00N 53°59' E 008°27'714.1
2017-Nov-15 20:30N 53°57' E 008°39'713.6
2017-Nov-15 20:00N 53°51' E 008°45'612.8
2017-Nov-15 19:30N 53°51' E 008°56'612.9
2017-Nov-15 19:01N 53°53' E 009°07'4 8.4
2017-Nov-15 18:31N 53°53' E 009°14'612.8
2017-Nov-15 18:01N 53°49' E 009°22'714.8
2017-Nov-15 17:30N 53°43' E 009°29'713.7
2017-Nov-15 17:01N 53°37' E 009°35'611.6
2017-Nov-15 16:30N 53°34' E 009°43'5 9.8
2017-Nov-15 16:00N 53°33' E 009°51'4 7.4
2017-Nov-15 15:30N 53°33' E 009°57'2 3.3
2017-Nov-15 15:00N 53°32' E 009°60'0 0.0
2017-Nov-15 14:30N 53°32' E 009°60'0 0.0
2017-Nov-15 14:00N 53°32' E 009°60'0 0.0
2017-Nov-15 13:30N 53°32' E 009°60'0 0.0
2017-Nov-15 13:01N 53°32' E 009°60'0 0.0
2017-Nov-15 12:30N 53°32' E 009°60'0 0.0
2017-Nov-15 12:00N 53°32' E 009°60'0 0.0
2017-Nov-15 11:30N 53°32' E 009°60'0 0.0
2017-Nov-15 11:01N 53°32' E 009°60'0 0.0
2017-Nov-15 10:30N 53°32' E 009°60'0 0.0
2017-Nov-15 10:00N 53°32' E 009°60'0 0.0
2017-Nov-15 09:30N 53°32' E 009°60'0 0.0
2017-Nov-15 09:00N 53°32' E 009°60'0 0.0
2017-Nov-15 08:31N 53°32' E 009°60'0 0.0
2017-Nov-15 08:00N 53°32' E 009°60'0 0.0
2017-Nov-15 07:30N 53°32' E 009°60'0 0.0
2017-Nov-15 07:00N 53°32' E 009°60'0 0.0
2017-Nov-15 06:30N 53°32' E 009°60'0 0.0
2017-Nov-15 06:00N 53°32' E 009°60'0 0.0
2017-Nov-15 05:30N 53°32' E 009°60'0 0.0
2017-Nov-15 05:00N 53°32' E 009°60'0 0.0
2017-Nov-15 04:30N 53°32' E 009°60'0 0.0
2017-Nov-15 04:00N 53°32' E 009°60'1 2.9
2017-Nov-15 03:30N 53°33' E 009°58'4 7.2
2017-Nov-15 03:00N 53°33' E 009°52'3 6.7
2017-Nov-15 02:30N 53°34' E 009°46'5 9.8
2017-Nov-15 02:00N 53°34' E 009°38'612.4
2017-Nov-15 01:30N 53°39' E 009°31'612.5
2017-Nov-15 01:00N 53°44' E 009°26'714.6
2017-Nov-15 00:30N 53°51' E 009°20'713.5
2017-Nov-15 00:00N 53°53' E 009°09'511.0
2017-Nov-14 23:30N 53°51' E 008°60'815.5
2017-Nov-14 23:00N 53°51' E 008°47'713.6
2017-Nov-14 22:30N 53°56' E 008°40'815.2
2017-Nov-14 22:00N 53°59' E 008°27'814.9
2017-Nov-14 21:30N 53°59' E 008°15'5 9.8
2017-Nov-14 21:00N 53°59' E 008°06'4 8.4
2017-Nov-14 20:30N 53°59' E 007°59'4 7.9
2017-Nov-14 20:00N 53°58' E 007°53'4 7.0
2017-Nov-14 19:30N 53°58' E 007°47'287 6.9
2017-Nov-13 02:01N 50°60' E 001°36'5 9.9
2017-Nov-13 01:31N 50°56' E 001°31'5 9.4
2017-Nov-13 01:01N 50°52' E 001°26'3911.3
2017-Nov-12 21:34N 50°26' E 000°41'613.1
2017-Nov-12 21:07N 50°24' E 000°33'213.2
2017-Nov-12 20:57N 50°24' E 000°30'613.3
2017-Nov-12 20:30N 50°22' E 000°20'813.3
2017-Nov-12 19:56N 50°19' E 000°09'613.5
2017-Nov-12 19:31N 50°17' E 000°01'713.6
2017-Nov-12 18:59N 50°14' W 000°09'613.6
2017-Nov-12 18:30N 50°12' W 000°19'714.0
2017-Nov-12 18:00N 50°10' W 000°29'714.2
2017-Nov-12 17:30N 50°06' W 000°39'714.7
2017-Nov-12 17:00N 50°03' W 000°49'1714.2
2017-Nov-12 15:47N 49°56' W 001°13'414.3
2017-Nov-12 15:30N 49°54' W 001°19'715.0
2017-Nov-12 15:01N 49°51' W 001°30'714.6
2017-Nov-12 14:30N 49°46' W 001°38'4 7.6
2017-Nov-12 14:00N 49°44' W 001°42'4 8.5
2017-Nov-12 13:30N 49°45' W 001°48'510.8
2017-Nov-12 13:01N 49°48' W 001°56'2813.3
2017-Nov-12 10:55N 49°51' W 002°39'614.0
2017-Nov-12 10:30N 49°50' W 002°47'814.7
2017-Nov-12 09:59N 49°48' W 002°59'1014.2
2017-Nov-12 09:19N 49°44' W 003°13'413.6
2017-Nov-12 09:00N 49°43' W 003°19'1213.7
2017-Nov-12 08:08N 49°40' W 003°36'813.7
2017-Nov-12 07:32N 49°37' W 003°49'113.8
2017-Nov-12 07:29N 49°37' W 003°50'  

Dump ship's entire track history